sensor_id;sensor_type;location;lat;lon;timestamp;pressure;altitude;pressure_sealevel;temperature;humidity
46638;BME280;32365;46.938;7.390;2022-09-25T09:21:32;94940.84;;;11.27;98.30
46638;BME280;32365;46.938;7.390;2022-09-25T09:24:04;94945.28;;;11.31;96.32
46638;BME280;32365;46.938;7.390;2022-09-25T09:26:32;94948.63;;;11.27;99.05
46638;BME280;32365;46.938;7.390;2022-09-25T09:29:04;94954.69;;;11.37;98.22
46638;BME280;32365;46.938;7.390;2022-09-25T09:31:36;94950.38;;;11.21;98.61
46638;BME280;32365;46.938;7.390;2022-09-25T09:34:12;94944.47;;;11.26;97.76
46638;BME280;32365;46.938;7.390;2022-09-25T09:36:50;94944.38;;;11.20;98.82
46638;BME280;32365;46.938;7.390;2022-09-25T09:39:19;94946.97;;;11.20;100.00
46638;BME280;32365;46.938;7.390;2022-09-25T09:41:52;94946.25;;;11.25;100.00
46638;BME280;32365;46.938;7.390;2022-09-25T09:44:33;94945.72;;;11.23;100.00
46638;BME280;32365;46.938;7.390;2022-09-25T09:47:06;94950.13;;;11.22;100.00
46638;BME280;32365;46.938;7.390;2022-09-25T09:49:38;94947.34;;;11.29;100.00
46638;BME280;32365;46.938;7.390;2022-09-25T09:52:08;94947.25;;;11.46;100.00
46638;BME280;32365;46.938;7.390;2022-09-25T09:54:39;94950.41;;;11.48;100.00
46638;BME280;32365;46.938;7.390;2022-09-25T09:57:09;94950.84;;;11.67;100.00
46638;BME280;32365;46.938;7.390;2022-09-25T09:59:40;94942.53;;;11.65;100.00
46638;BME280;32365;46.938;7.390;2022-09-25T10:02:11;94947.53;;;11.72;100.00
46638;BME280;32365;46.938;7.390;2022-09-25T10:04:42;94943.34;;;11.71;100.00
46638;BME280;32365;46.938;7.390;2022-09-25T10:07:12;94938.78;;;11.78;100.00
46638;BME280;32365;46.938;7.390;2022-09-25T10:09:42;94941.66;;;11.82;100.00
46638;BME280;32365;46.938;7.390;2022-09-25T10:12:10;94940.84;;;12.09;100.00
46638;BME280;32365;46.938;7.390;2022-09-25T10:14:40;94940.97;;;12.24;99.75
46638;BME280;32365;46.938;7.390;2022-09-25T10:17:07;94933.78;;;12.31;99.91
46638;BME280;32365;46.938;7.390;2022-09-25T10:19:40;94936.66;;;12.35;99.97
46638;BME280;32365;46.938;7.390;2022-09-25T10:22:11;94936.97;;;12.44;99.96
46638;BME280;32365;46.938;7.390;2022-09-25T10:24:45;94930.44;;;12.41;99.30
46638;BME280;32365;46.938;7.390;2022-09-25T10:27:20;94931.09;;;12.59;98.90
46638;BME280;32365;46.938;7.390;2022-09-25T10:29:53;94926.72;;;12.65;95.85
46638;BME280;32365;46.938;7.390;2022-09-25T10:32:25;94927.53;;;12.70;97.13
46638;BME280;32365;46.938;7.390;2022-09-25T10:34:52;94926.00;;;12.80;96.45
46638;BME280;32365;46.938;7.390;2022-09-25T10:37:20;94923.44;;;12.85;96.44
46638;BME280;32365;46.938;7.390;2022-09-25T10:39:58;94920.13;;;13.00;95.64
46638;BME280;32365;46.938;7.390;2022-09-25T10:42:34;94922.25;;;13.18;96.21
46638;BME280;32365;46.938;7.390;2022-09-25T10:45:14;94918.13;;;13.22;96.60
46638;BME280;32365;46.938;7.390;2022-09-25T10:47:40;94919.06;;;13.69;92.78
46638;BME280;32365;46.938;7.390;2022-09-25T10:50:25;94910.47;;;14.21;90.44
46638;BME280;32365;46.938;7.390;2022-09-25T10:52:54;94912.75;;;14.69;89.21
46638;BME280;32365;46.938;7.390;2022-09-25T10:55:23;94911.19;;;14.78;85.31
46638;BME280;32365;46.938;7.390;2022-09-25T10:57:53;94912.72;;;14.84;89.44
46638;BME280;32365;46.938;7.390;2022-09-25T11:00:23;94915.13;;;14.44;87.88
46638;BME280;32365;46.938;7.390;2022-09-25T11:02:51;94914.63;;;14.27;89.93
46638;BME280;32365;46.938;7.390;2022-09-25T11:05:23;94910.38;;;14.77;89.54
46638;BME280;32365;46.938;7.390;2022-09-25T11:07:51;94916.66;;;14.71;89.25
46638;BME280;32365;46.938;7.390;2022-09-25T11:10:21;94915.88;;;14.66;84.56
46638;BME280;32365;46.938;7.390;2022-09-25T11:12:49;94914.63;;;14.32;86.62
46638;BME280;32365;46.938;7.390;2022-09-25T11:15:16;94919.06;;;14.16;86.30
46638;BME280;32365;46.938;7.390;2022-09-25T11:17:44;94915.16;;;13.93;87.74
46638;BME280;32365;46.938;7.390;2022-09-25T11:20:22;94921.41;;;13.92;88.31
46638;BME280;32365;46.938;7.390;2022-09-25T11:22:55;94919.28;;;13.78;89.72
46638;BME280;32365;46.938;7.390;2022-09-25T11:25:25;94922.66;;;13.63;89.08
46638;BME280;32365;46.938;7.390;2022-09-25T11:27:53;94920.28;;;13.46;89.49
46638;BME280;32365;46.938;7.390;2022-09-25T11:30:21;94923.94;;;13.50;90.71
46638;BME280;32365;46.938;7.390;2022-09-25T11:32:49;94914.56;;;13.44;91.85
46638;BME280;32365;46.938;7.390;2022-09-25T11:35:20;94920.81;;;13.48;91.37
46638;BME280;32365;46.938;7.390;2022-09-25T11:38:00;94920.03;;;13.48;92.35
46638;BME280;32365;46.938;7.390;2022-09-25T11:40:36;94916.84;;;13.35;93.36
46638;BME280;32365;46.938;7.390;2022-09-25T11:43:22;94920.88;;;13.64;91.83
46638;BME280;32365;46.938;7.390;2022-09-25T11:45:52;94916.41;;;13.59;91.19
46638;BME280;32365;46.938;7.390;2022-09-25T11:48:22;94906.53;;;13.51;90.96
46638;BME280;32365;46.938;7.390;2022-09-25T11:50:53;94913.59;;;13.76;89.62
46638;BME280;32365;46.938;7.390;2022-09-25T11:53:25;94904.75;;;13.88;89.25
46638;BME280;32365;46.938;7.390;2022-09-25T11:56:02;94913.34;;;13.98;89.73
46638;BME280;32365;46.938;7.390;2022-09-25T12:01:20;94913.34;;;13.88;86.98
46638;BME280;32365;46.938;7.390;2022-09-25T12:06:44;94914.88;;;14.10;85.93
46638;BME280;32365;46.938;7.390;2022-09-25T12:09:17;94918.28;;;14.05;86.54
46638;BME280;32365;46.938;7.390;2022-09-25T12:11:52;94921.94;;;14.09;87.82
46638;BME280;32365;46.938;7.390;2022-09-25T12:14:23;94911.00;;;14.18;83.67
46638;BME280;32365;46.938;7.390;2022-09-25T12:16:53;94914.38;;;13.97;85.64
46638;BME280;32365;46.938;7.390;2022-09-25T12:19:28;94913.34;;;14.14;85.79
46638;BME280;32365;46.938;7.390;2022-09-25T12:21:58;94910.97;;;14.02;84.15
46638;BME280;32365;46.938;7.390;2022-09-25T12:24:30;94918.00;;;14.22;85.05
46638;BME280;32365;46.938;7.390;2022-09-25T12:27:04;94911.75;;;14.34;83.81
46638;BME280;32365;46.938;7.390;2022-09-25T12:29:37;94906.81;;;14.47;83.18
46638;BME280;32365;46.938;7.390;2022-09-25T12:32:08;94902.81;;;14.81;83.17
46638;BME280;32365;46.938;7.390;2022-09-25T12:34:45;94904.03;;;15.04;83.67
46638;BME280;32365;46.938;7.390;2022-09-25T12:37:16;94898.97;;;15.74;81.94
46638;BME280;32365;46.938;7.390;2022-09-25T12:39:46;94897.78;;;16.30;76.15
46638;BME280;32365;46.938;7.390;2022-09-25T12:42:17;94892.75;;;16.39;76.03
46638;BME280;32365;46.938;7.390;2022-09-25T12:44:46;94894.25;;;16.15;73.02
46638;BME280;32365;46.938;7.390;2022-09-25T12:47:16;94891.94;;;16.09;71.85
46638;BME280;32365;46.938;7.390;2022-09-25T12:49:46;94894.56;;;16.09;72.67
46638;BME280;32365;46.938;7.390;2022-09-25T12:52:16;94889.41;;;15.98;71.56
46638;BME280;32365;46.938;7.390;2022-09-25T12:54:45;94895.19;;;15.95;75.56
46638;BME280;32365;46.938;7.390;2022-09-25T12:57:17;94894.00;;;16.12;74.34
46638;BME280;32365;46.938;7.390;2022-09-25T12:59:47;94891.22;;;16.33;74.22
46638;BME280;32365;46.938;7.390;2022-09-25T13:02:17;94883.47;;;16.22;73.06
46638;BME280;32365;46.938;7.390;2022-09-25T13:04:57;94881.06;;;16.80;70.77
46638;BME280;32365;46.938;7.390;2022-09-25T13:07:27;94890.19;;;16.58;72.45
46638;BME280;32365;46.938;7.390;2022-09-25T13:09:57;94881.72;;;16.12;74.64
46638;BME280;32365;46.938;7.390;2022-09-25T13:12:29;94889.72;;;16.26;69.28
46638;BME280;32365;46.938;7.390;2022-09-25T13:14:57;94882.50;;;16.42;69.91
46638;BME280;32365;46.938;7.390;2022-09-25T13:17:25;94884.41;;;16.07;70.66
46638;BME280;32365;46.938;7.390;2022-09-25T13:19:52;94887.31;;;16.00;72.66
46638;BME280;32365;46.938;7.390;2022-09-25T13:22:19;94883.97;;;15.95;74.36
46638;BME280;32365;46.938;7.390;2022-09-25T13:24:49;94888.69;;;15.93;71.95
46638;BME280;32365;46.938;7.390;2022-09-25T13:27:18;94891.00;;;15.94;71.94
46638;BME280;32365;46.938;7.390;2022-09-25T13:29:55;94884.28;;;15.83;70.68
46638;BME280;32365;46.938;7.390;2022-09-25T13:32:23;94883.97;;;15.95;71.33
46638;BME280;32365;46.938;7.390;2022-09-25T13:34:53;94890.66;;;16.36;68.35
46638;BME280;32365;46.938;7.390;2022-09-25T13:37:22;94884.72;;;18.31;62.97
46638;BME280;32365;46.938;7.390;2022-09-25T13:39:50;94883.53;;;18.57;62.38
46638;BME280;32365;46.938;7.390;2022-09-25T13:42:35;94886.28;;;18.33;61.17
46638;BME280;32365;46.938;7.390;2022-09-25T13:45:24;94885.44;;;17.52;63.48
46638;BME280;32365;46.938;7.390;2022-09-25T13:48:01;94890.63;;;17.14;63.80
46638;BME280;32365;46.938;7.390;2022-09-25T13:50:30;94886.63;;;16.73;67.14
46638;BME280;32365;46.938;7.390;2022-09-25T13:56:04;94890.91;;;16.10;67.09
46638;BME280;32365;46.938;7.390;2022-09-25T13:58:57;94891.00;;;15.54;73.00
46638;BME280;32365;46.938;7.390;2022-09-25T14:01:19;94892.97;;;15.73;74.11
46638;BME280;32365;46.938;7.390;2022-09-25T14:03:56;94885.69;;;15.70;73.30
46638;BME280;32365;46.938;7.390;2022-09-25T14:06:23;94884.41;;;15.67;73.06
46638;BME280;32365;46.938;7.390;2022-09-25T14:08:52;94890.16;;;15.69;70.22
46638;BME280;32365;46.938;7.390;2022-09-25T14:11:21;94885.69;;;15.70;71.02
46638;BME280;32365;46.938;7.390;2022-09-25T14:13:51;94880.72;;;16.08;70.47
46638;BME280;32365;46.938;7.390;2022-09-25T14:16:22;94878.53;;;15.91;69.50
46638;BME280;32365;46.938;7.390;2022-09-25T14:18:50;94879.06;;;16.23;69.24
46638;BME280;32365;46.938;7.390;2022-09-25T14:21:17;94877.81;;;16.15;68.12
46638;BME280;32365;46.938;7.390;2022-09-25T14:23:46;94873.63;;;15.79;68.39
46638;BME280;32365;46.938;7.390;2022-09-25T14:26:16;94878.06;;;15.79;69.14
46638;BME280;32365;46.938;7.390;2022-09-25T14:28:44;94880.63;;;15.89;69.33
46638;BME280;32365;46.938;7.390;2022-09-25T14:31:15;94882.06;;;15.66;69.02
46638;BME280;32365;46.938;7.390;2022-09-25T14:33:53;94879.88;;;15.38;72.44
46638;BME280;32365;46.938;7.390;2022-09-25T14:36:27;94883.00;;;15.41;72.73
46638;BME280;32365;46.938;7.390;2022-09-25T14:39:06;94883.41;;;15.13;73.77
46638;BME280;32365;46.938;7.390;2022-09-25T14:41:45;94885.63;;;14.80;73.44
46638;BME280;32365;46.938;7.390;2022-09-25T14:44:24;94886.69;;;14.69;74.83
46638;BME280;32365;46.938;7.390;2022-09-25T14:46:54;94887.50;;;14.54;75.17
46638;BME280;32365;46.938;7.390;2022-09-25T14:49:23;94888.53;;;14.53;74.96
46638;BME280;32365;46.938;7.390;2022-09-25T14:51:52;94880.44;;;14.65;75.60
46638;BME280;32365;46.938;7.390;2022-09-25T14:54:20;94881.75;;;14.57;75.56
46638;BME280;32365;46.938;7.390;2022-09-25T14:56:48;94886.19;;;14.61;75.38
46638;BME280;32365;46.938;7.390;2022-09-25T14:59:19;94886.53;;;14.19;75.17
46638;BME280;32365;46.938;7.390;2022-09-25T15:01:49;94876.59;;;14.46;72.91
46638;BME280;32365;46.938;7.390;2022-09-25T15:04:25;94879.19;;;14.41;74.15
46638;BME280;32365;46.938;7.390;2022-09-25T15:06:57;94877.13;;;14.28;77.57
46638;BME280;32365;46.938;7.390;2022-09-25T15:09:28;94876.59;;;14.41;77.52
46638;BME280;32365;46.938;7.390;2022-09-25T15:11:55;94879.69;;;14.54;76.07
46638;BME280;32365;46.938;7.390;2022-09-25T15:14:21;94880.44;;;14.59;74.71
46638;BME280;32365;46.938;7.390;2022-09-25T15:16:47;94880.69;;;14.63;74.81
46638;BME280;32365;46.938;7.390;2022-09-25T15:19:33;94877.31;;;14.78;74.85
46638;BME280;32365;46.938;7.390;2022-09-25T15:22:06;94884.75;;;15.00;74.37
46638;BME280;32365;46.938;7.390;2022-09-25T15:24:33;94876.66;;;15.12;73.60
46638;BME280;32365;46.938;7.390;2022-09-25T15:27:02;94880.00;;;15.63;70.96
46638;BME280;32365;46.938;7.390;2022-09-25T15:29:29;94885.06;;;15.83;67.45
46638;BME280;32365;46.938;7.390;2022-09-25T15:31:58;94883.97;;;15.95;66.98
46638;BME280;32365;46.938;7.390;2022-09-25T15:34:25;94885.25;;;15.97;67.30
46638;BME280;32365;46.938;7.390;2022-09-25T15:37:12;94882.59;;;16.03;66.84
46638;BME280;32365;46.938;7.390;2022-09-25T15:39:40;94887.63;;;15.94;67.02
46638;BME280;32365;46.938;7.390;2022-09-25T15:42:09;94889.56;;;15.78;67.30
46638;BME280;32365;46.938;7.390;2022-09-25T15:44:37;94889.75;;;15.47;68.17
46638;BME280;32365;46.938;7.390;2022-09-25T15:47:03;94890.00;;;15.50;69.25
46638;BME280;32365;46.938;7.390;2022-09-25T15:49:30;94886.75;;;15.24;71.30
46638;BME280;32365;46.938;7.390;2022-09-25T15:52:00;94881.72;;;15.38;67.92
46638;BME280;32365;46.938;7.390;2022-09-25T15:54:29;94885.63;;;15.41;69.12
46638;BME280;32365;46.938;7.390;2022-09-25T15:56:56;94887.03;;;15.22;71.83
46638;BME280;32365;46.938;7.390;2022-09-25T15:59:24;94883.19;;;15.04;70.22
46638;BME280;32365;46.938;7.390;2022-09-25T16:01:52;94887.94;;;14.97;70.89
46638;BME280;32365;46.938;7.390;2022-09-25T16:04:37;94887.13;;;14.91;69.69
46638;BME280;32365;46.938;7.390;2022-09-25T16:07:22;94886.44;;;14.65;71.85
46638;BME280;32365;46.938;7.390;2022-09-25T16:09:52;94891.16;;;14.42;73.92
46638;BME280;32365;46.938;7.390;2022-09-25T16:12:19;94901.63;;;14.22;75.17
46638;BME280;32365;46.938;7.390;2022-09-25T16:14:46;94900.59;;;14.12;75.63
46638;BME280;32365;46.938;7.390;2022-09-25T16:17:14;94895.38;;;14.02;76.40
46638;BME280;32365;46.938;7.390;2022-09-25T16:19:42;94900.84;;;14.00;77.28
46638;BME280;32365;46.938;7.390;2022-09-25T16:22:13;94906.06;;;13.80;79.08
46638;BME280;32365;46.938;7.390;2022-09-25T16:24:47;94903.16;;;13.66;80.92
46638;BME280;32365;46.938;7.390;2022-09-25T16:27:18;94901.09;;;13.63;80.91
46638;BME280;32365;46.938;7.390;2022-09-25T16:29:46;94907.31;;;13.57;79.67
46638;BME280;32365;46.938;7.390;2022-09-25T16:32:14;94898.97;;;13.49;80.92
46638;BME280;32365;46.938;7.390;2022-09-25T16:34:53;94904.72;;;13.51;81.91
46638;BME280;32365;46.938;7.390;2022-09-25T16:37:21;94909.56;;;13.37;82.79
46638;BME280;32365;46.938;7.390;2022-09-25T16:42:32;94920.25;;;13.36;81.36
46638;BME280;32365;46.938;7.390;2022-09-25T16:45:13;94932.53;;;12.87;78.72
46638;BME280;32365;46.938;7.390;2022-09-25T16:47:40;94935.69;;;12.46;80.27
46638;BME280;32365;46.938;7.390;2022-09-25T16:50:07;94937.00;;;12.11;81.80
46638;BME280;32365;46.938;7.390;2022-09-25T16:52:33;94941.41;;;11.83;84.46
46638;BME280;32365;46.938;7.390;2022-09-25T16:55:02;94947.81;;;11.48;85.85
46638;BME280;32365;46.938;7.390;2022-09-25T16:57:34;94950.72;;;11.07;88.14
46638;BME280;32365;46.938;7.390;2022-09-25T17:00:02;94947.94;;;10.92;90.45
46638;BME280;32365;46.938;7.390;2022-09-25T17:02:30;94945.78;;;10.84;90.75
46638;BME280;32365;46.938;7.390;2022-09-25T17:05:01;94943.59;;;10.75;94.29
46638;BME280;32365;46.938;7.390;2022-09-25T17:07:28;94940.00;;;10.59;94.61
46638;BME280;32365;46.938;7.390;2022-09-25T17:09:55;94946.44;;;10.57;95.13
46638;BME280;32365;46.938;7.390;2022-09-25T17:12:23;94953.81;;;10.48;94.94
46638;BME280;32365;46.938;7.390;2022-09-25T17:14:51;94962.78;;;10.40;96.58
46638;BME280;32365;46.938;7.390;2022-09-25T17:17:19;94957.25;;;10.37;96.54
46638;BME280;32365;46.938;7.390;2022-09-25T17:19:47;94966.59;;;10.21;97.17
46638;BME280;32365;46.938;7.390;2022-09-25T17:22:13;94959.69;;;10.26;98.33
46638;BME280;32365;46.938;7.390;2022-09-25T17:24:40;94964.16;;;10.31;98.53
46638;BME280;32365;46.938;7.390;2022-09-25T17:27:15;94968.25;;;10.27;98.11
46638;BME280;32365;46.938;7.390;2022-09-25T17:29:42;94967.22;;;10.28;98.83
46638;BME280;32365;46.938;7.390;2022-09-25T17:32:12;94971.22;;;10.19;97.61
46638;BME280;32365;46.938;7.390;2022-09-25T17:34:42;94969.16;;;10.21;99.33
46638;BME280;32365;46.938;7.390;2022-09-25T17:37:09;94973.34;;;10.22;99.67
46638;BME280;32365;46.938;7.390;2022-09-25T17:39:36;94972.00;;;10.19;99.36
46638;BME280;32365;46.938;7.390;2022-09-25T17:42:02;94978.09;;;10.13;97.41
46638;BME280;32365;46.938;7.390;2022-09-25T17:44:29;94977.16;;;10.02;97.86
46638;BME280;32365;46.938;7.390;2022-09-25T17:46:55;94976.38;;;10.01;98.27
46638;BME280;32365;46.938;7.390;2022-09-25T17:49:25;94976.38;;;10.01;98.77
46638;BME280;32365;46.938;7.390;2022-09-25T17:51:51;94975.13;;;10.04;99.44
46638;BME280;32365;46.938;7.390;2022-09-25T17:54:18;94977.94;;;10.02;99.72
46638;BME280;32365;46.938;7.390;2022-09-25T17:56:44;94978.19;;;10.01;98.37
46638;BME280;32365;46.938;7.390;2022-09-25T17:59:11;94983.97;;;10.08;99.27
46638;BME280;32365;46.938;7.390;2022-09-25T18:01:37;94981.69;;;10.12;100.00
46638;BME280;32365;46.938;7.390;2022-09-25T18:04:08;94988.28;;;10.02;100.00
46638;BME280;32365;46.938;7.390;2022-09-25T18:06:41;94985.25;;;10.06;99.78
46638;BME280;32365;46.938;7.390;2022-09-25T18:09:08;94985.78;;;10.08;100.00
46638;BME280;32365;46.938;7.390;2022-09-25T18:11:34;94992.53;;;10.09;100.00
46638;BME280;32365;46.938;7.390;2022-09-25T18:14:01;94997.06;;;10.01;100.00
46638;BME280;32365;46.938;7.390;2022-09-25T18:16:28;94987.50;;;10.02;100.00
46638;BME280;32365;46.938;7.390;2022-09-25T18:18:55;94999.44;;;10.03;100.00
46638;BME280;32365;46.938;7.390;2022-09-25T18:21:40;95003.78;;;10.02;100.00
46638;BME280;32365;46.938;7.390;2022-09-25T18:24:24;95002.00;;;10.03;100.00
46638;BME280;32365;46.938;7.390;2022-09-25T18:26:51;94999.75;;;10.07;100.00
46638;BME280;32365;46.938;7.390;2022-09-25T18:29:18;94999.63;;;10.01;100.00
46638;BME280;32365;46.938;7.390;2022-09-25T18:31:45;94994.31;;;10.08;100.00
46638;BME280;32365;46.938;7.390;2022-09-25T18:34:12;94999.50;;;10.08;100.00
46638;BME280;32365;46.938;7.390;2022-09-25T18:36:38;94995.34;;;10.07;100.00
46638;BME280;32365;46.938;7.390;2022-09-25T18:39:06;94997.72;;;10.09;100.00
46638;BME280;32365;46.938;7.390;2022-09-25T18:41:34;95006.34;;;10.14;100.00
46638;BME280;32365;46.938;7.390;2022-09-25T18:44:01;95014.16;;;10.20;100.00
46638;BME280;32365;46.938;7.390;2022-09-25T18:46:27;95013.41;;;10.19;100.00
46638;BME280;32365;46.938;7.390;2022-09-25T18:48:54;95007.41;;;10.19;100.00
46638;BME280;32365;46.938;7.390;2022-09-25T18:51:23;95013.84;;;10.16;100.00
46638;BME280;32365;46.938;7.390;2022-09-25T18:53:50;95000.47;;;10.19;100.00
46638;BME280;32365;46.938;7.390;2022-09-25T18:56:18;95004.28;;;10.16;100.00
46638;BME280;32365;46.938;7.390;2022-09-25T18:58:44;95001.69;;;10.16;100.00
46638;BME280;32365;46.938;7.390;2022-09-25T19:01:11;95005.63;;;10.19;100.00
46638;BME280;32365;46.938;7.390;2022-09-25T19:03:38;95008.53;;;10.23;100.00
46638;BME280;32365;46.938;7.390;2022-09-25T19:06:07;95006.25;;;10.26;100.00
46638;BME280;32365;46.938;7.390;2022-09-25T19:08:34;95012.53;;;10.30;100.00
46638;BME280;32365;46.938;7.390;2022-09-25T19:11:01;95014.66;;;10.34;100.00
46638;BME280;32365;46.938;7.390;2022-09-25T19:13:28;95019.59;;;10.35;100.00
46638;BME280;32365;46.938;7.390;2022-09-25T19:15:55;95014.13;;;10.31;100.00
46638;BME280;32365;46.938;7.390;2022-09-25T19:18:23;95021.06;;;10.31;100.00
46638;BME280;32365;46.938;7.390;2022-09-25T19:20:50;95023.34;;;10.27;100.00
46638;BME280;32365;46.938;7.390;2022-09-25T19:23:17;95023.28;;;10.22;100.00
46638;BME280;32365;46.938;7.390;2022-09-25T19:25:50;95025.78;;;10.17;100.00
46638;BME280;32365;46.938;7.390;2022-09-25T19:28:17;95020.97;;;10.09;100.00
46638;BME280;32365;46.938;7.390;2022-09-25T19:30:44;95035.16;;;10.06;100.00
46638;BME280;32365;46.938;7.390;2022-09-25T19:33:19;95028.47;;;9.93;100.00
46638;BME280;32365;46.938;7.390;2022-09-25T19:35:46;95036.81;;;9.83;100.00
46638;BME280;32365;46.938;7.390;2022-09-25T19:38:13;95029.19;;;9.77;100.00
46638;BME280;32365;46.938;7.390;2022-09-25T19:40:39;95026.47;;;9.83;100.00
46638;BME280;32365;46.938;7.390;2022-09-25T19:43:05;95027.13;;;9.91;100.00
46638;BME280;32365;46.938;7.390;2022-09-25T19:45:33;95023.75;;;9.90;100.00
46638;BME280;32365;46.938;7.390;2022-09-25T19:48:02;95026.41;;;9.78;100.00
46638;BME280;32365;46.938;7.390;2022-09-25T19:50:29;95027.19;;;9.79;100.00
46638;BME280;32365;46.938;7.390;2022-09-25T19:52:55;95026.06;;;9.75;100.00
46638;BME280;32365;46.938;7.390;2022-09-25T19:55:22;95033.16;;;9.67;100.00
46638;BME280;32365;46.938;7.390;2022-09-25T19:57:48;95034.09;;;9.61;100.00
46638;BME280;32365;46.938;7.390;2022-09-25T20:00:14;95033.75;;;9.58;100.00
46638;BME280;32365;46.938;7.390;2022-09-25T20:02:43;95034.22;;;9.54;100.00
46638;BME280;32365;46.938;7.390;2022-09-25T20:05:11;95040.81;;;9.62;100.00
46638;BME280;32365;46.938;7.390;2022-09-25T20:07:37;95042.63;;;9.62;100.00
46638;BME280;32365;46.938;7.390;2022-09-25T20:10:04;95044.53;;;9.66;100.00
46638;BME280;32365;46.938;7.390;2022-09-25T20:12:30;95051.84;;;9.58;100.00
